SVPL1: Red River at Shreveport Site 2

                                SHEF ID:       SVPL1     Red River at Shreveport Site 2
STATION TYPE:

PRECIP STAGE RIV-FLOW VOLTAGE
in ft cfs volt
Ccp-Rev Ccp-Rev Ccp-Rev Ccp-Rev
(America/Chicago)
06/25 00:00 0.00 20.95 49750 12.81
06/25 01:00 0.00 20.96 49800 12.80
06/25 02:00 0.00 21.01 50060 12.77
06/25 03:00 0.00 21.05 50300 12.76
06/25 04:00 0.00 21.06 50360 12.74
06/25 05:00 0.00 21.06 50360 12.73
06/25 06:00 0.00 21.23 51380 12.75
06/25 07:00 0.00 21.30 51800 12.99
06/25 08:00 0.00 21.38 52280 13.31
06/25 09:00 0.00 21.41 52460 13.09
06/25 10:00 0.00 21.54 53240 13.09
06/25 11:00 0.00 21.65 53900 13.06
06/25 12:00 0.00 21.76 54560 13.08
06/25 13:00 0.00 21.87 55220 13.06
06/25 14:00 0.00 21.93 55580 13.09
06/25 15:00 0.00 22.04 56240 13.06
06/25 16:00 0.00 22.18 57080 13.09
06/25 17:00 0.00 22.26 57560 13.08
06/25 18:00 0.00 22.42 58520 13.02
06/25 19:00 0.00 22.58 59480 12.91
06/25 20:00 0.00 22.66 59960 12.88
06/25 21:00 0.00 22.82 60920 12.86
06/25 22:00 0.00 22.93 61580 12.84
06/25 23:00 0.00 22.82 60920 12.86
Data processed at Fri 26Jun2026 04:24 GMT

NOTICE: If you are parsing this page

Please convert to using our Data API. Starting early 2026 we will be migrating to: https://water.usace.army.mil with modern pages rendered in JavaScript. When this migration completes you will no longer be able to scrape this page! CWMSDataAPI (CDA)

Timeseries IDs (TSIDs)

TSIDs used from left to right in the data table
SHRE.Precip-Inc.Total.1Hour.1Hour.Ccp-Rev
SHRE.Stage.Inst.1Hour.0.Ccp-Rev
SHRE.Flow.Inst.1Hour.0.Ccp-Rev
SHRE.Volt-Battery.Inst.1Hour.0.Ccp-Rev

                            

All information presented herein is the property of the government of the United States of America and may be revised or deleted at any time without prior notice. Dissemination of this information without the expressed written consent of the Public Affairs Office, Tulsa District U.S. Army Corps of Engineers is strictly prohibited. These data are gathered electronically and, as presented, have NOT undergone any form of quality control. These data are NOT guaranteed to be valid or correct.